Time;durP1;ratioP1;P1;durP2;ratioP2;P2;SDS_P1;SDS_P2;PMS_P1;PMS_P2;Temp;Humidity;BMP_temperature;BMP_pressure;BME280_temperature;BME280_humidity;BME280_pressure;Samples;Min_cycle;Max_cycle;Signal;HPM_P1;HPM_P2
2022/08/11 00:00:05;;;;;;;2.33;1.88;;;18.40;55.10;;;;;;4955857;28;20051;-63
2022/08/11 00:02:42;;;;;;;2.35;2.00;;;18.40;55.90;;;;;;4953481;28;20039;-64
2022/08/11 00:05:20;;;;;;;2.30;2.10;;;18.40;55.70;;;;;;4949757;28;20514;-63
2022/08/11 00:07:53;;;;;;;5.97;1.92;;;18.40;55.40;;;;;;4950722;28;20039;-62
2022/08/11 00:10:26;;;;;;;2.92;1.50;;;18.40;55.80;;;;;;4946522;28;20101;-63
2022/08/11 00:12:58;;;;;;;1.90;1.65;;;18.40;55.10;;;;;;4941330;28;20039;-64
2022/08/11 00:15:25;;;;;;;2.20;1.63;;;18.50;54.80;;;;;;4934561;28;20407;-62
2022/08/11 00:18:00;;;;;;;2.33;1.80;;;18.50;54.70;;;;;;4951385;28;20047;-63
2022/08/11 00:20:32;;;;;;;4.45;1.92;;;18.50;55.30;;;;;;4952616;28;20674;-63
2022/08/11 00:23:09;;;;;;;3.67;2.00;;;18.50;55.00;;;;;;4949341;28;20043;-63
2022/08/11 00:25:40;;;;;;;2.25;1.80;;;18.40;54.90;;;;;;4952685;28;20097;-62
2022/08/11 00:28:30;;;;;;;5.88;1.80;;;18.40;54.80;;;;;;4951578;28;20036;-63
2022/08/11 00:30:58;;;;;;;2.50;1.90;;;18.40;55.00;;;;;;4952490;28;20031;-62
2022/08/11 00:33:32;;;;;;;4.47;2.10;;;18.40;54.40;;;;;;4950816;28;20058;-62
2022/08/11 00:36:01;;;;;;;2.28;1.92;;;18.40;55.00;;;;;;4946830;28;20031;-62
2022/08/11 00:38:33;;;;;;;6.10;2.45;;;18.40;54.50;;;;;;4948367;28;20130;-63
2022/08/11 00:41:46;;;;;;;1.90;1.80;;;18.40;54.60;;;;;;4946985;28;20031;-64
2022/08/11 00:44:31;;;;;;;3.78;2.20;;;18.40;55.10;;;;;;4900931;28;21166;-63
2022/08/11 00:47:00;;;;;;;;;;;18.40;55.50;;;;;;4951285;28;20085;-63
2022/08/11 00:49:44;;;;;;;2.03;1.83;;;18.30;54.30;;;;;;4949144;28;19918;-63
2022/08/11 00:52:18;;;;;;;5.20;1.95;;;18.30;54.90;;;;;;4947174;28;20039;-61
2022/08/11 00:54:59;;;;;;;2.85;2.30;;;18.20;54.40;;;;;;4950883;28;20077;-63
2022/08/11 00:58:11;;;;;;;6.00;2.35;;;18.10;55.20;;;;;;4949181;28;20062;-63
2022/08/11 01:01:08;;;;;;;2.83;2.17;;;18.00;55.50;;;;;;4948403;28;20114;-62
2022/08/11 01:03:42;;;;;;;2.33;2.13;;;18.00;55.90;;;;;;4946335;28;20125;-63
2022/08/11 01:06:29;;;;;;;2.78;2.50;;;17.90;55.50;;;;;;4949802;28;20146;-63
2022/08/11 01:09:17;;;;;;;10.30;2.58;;;17.70;55.60;;;;;;4948912;28;20078;-63
2022/08/11 01:12:04;;;;;;;8.18;2.10;;;17.70;56.30;;;;;;4947528;28;20514;-62
2022/08/11 01:15:04;;;;;;;5.28;2.10;;;17.60;56.20;;;;;;4946239;28;20094;-62
2022/08/11 01:18:07;;;;;;;6.30;2.17;;;17.60;56.90;;;;;;4950314;28;20426;-64
2022/08/11 01:21:10;;;;;;;3.10;2.20;;;17.50;56.70;;;;;;4947308;28;20127;-62
2022/08/11 01:24:24;;;;;;;6.55;2.22;;;17.40;57.20;;;;;;4945472;28;20739;-62
2022/08/11 01:27:09;;;;;;;4.20;1.85;;;17.40;57.10;;;;;;4914218;28;20039;-63
2022/08/11 01:30:11;;;;;;;2.30;2.10;;;17.40;56.70;;;;;;4946315;28;20051;-62
2022/08/11 01:33:11;;;;;;;4.38;2.08;;;17.30;57.20;;;;;;4945736;28;20805;-63
2022/08/11 01:36:01;;;;;;;2.50;1.92;;;17.30;57.20;;;;;;4949662;28;20067;-63
2022/08/11 01:39:01;;;;;;;3.45;2.15;;;17.30;57.50;;;;;;4948426;28;20522;-63
2022/08/11 01:44:51;;;;;;;3.25;2.15;;;17.30;57.40;;;;;;4941997;28;20042;-64
2022/08/11 01:47:49;;;;;;;3.63;2.20;;;17.20;56.50;;;;;;4947425;28;20034;-62
2022/08/11 01:50:50;;;;;;;2.50;2.30;;;17.20;57.60;;;;;;4946900;28;20510;-62
2022/08/11 01:53:34;;;;;;;2.60;2.40;;;17.20;57.80;;;;;;4942385;28;20058;-62
2022/08/11 01:56:27;;;;;;;3.08;2.15;;;17.20;56.90;;;;;;4946017;28;20031;-60
2022/08/11 01:59:15;;;;;;;2.45;2.25;;;17.20;57.30;;;;;;4948494;28;20039;-62
2022/08/11 02:02:09;;;;;;;3.47;2.42;;;17.10;57.70;;;;;;4946939;28;20031;-62
2022/08/11 02:05:05;;;;;;;2.97;2.42;;;17.10;57.90;;;;;;4946675;28;20035;-63
2022/08/11 02:07:50;;;;;;;3.17;2.25;;;17.10;58.20;;;;;;4951842;28;20043;-63
2022/08/11 02:13:36;;;;;;;2.20;2.05;;;17.00;57.70;;;;;;4956055;28;20581;-62
2022/08/11 02:16:17;;;;;;;2.70;2.50;;;17.00;58.00;;;;;;4956637;28;20494;-62
2022/08/11 02:24:59;;;;;;;2.50;2.30;;;16.90;58.30;;;;;;4952062;28;20085;-62
2022/08/11 02:27:59;;;;;;;3.97;2.38;;;16.80;58.30;;;;;;4955307;28;20035;-62
2022/08/11 02:30:31;;;;;;;2.75;2.40;;;16.70;58.30;;;;;;4949892;28;20043;-63
2022/08/11 02:33:22;;;;;;;3.25;2.78;;;16.70;58.20;;;;;;4950423;28;20498;-62
2022/08/11 02:36:07;;;;;;;2.70;2.40;;;16.60;58.50;;;;;;4954933;28;20038;-63
2022/08/11 02:39:13;;;;;;;3.35;2.42;;;16.60;59.00;;;;;;4946970;28;20032;-62
2022/08/11 02:44:46;;;;;;;3.80;2.28;;;16.50;58.50;;;;;;4947171;28;20042;-64
2022/08/11 02:50:48;;;;;;;2.45;2.25;;;16.30;59.70;;;;;;4945625;28;20050;-64
2022/08/11 02:53:30;;;;;;;2.25;2.13;;;16.20;59.40;;;;;;4946225;28;20040;-63
2022/08/11 02:56:31;;;;;;;2.75;2.55;;;16.10;59.60;;;;;;4944767;28;20093;-62
2022/08/11 03:02:05;;;;;;;5.20;2.30;;;16.00;59.40;;;;;;4953799;28;20038;-63
2022/08/11 03:04:50;;;;;;;2.65;2.38;;;16.00;59.60;;;;;;4953836;28;20524;-61
2022/08/11 03:07:59;;;;;;;2.78;2.58;;;15.90;60.60;;;;;;4956315;28;20046;-61
2022/08/11 03:10:39;;;;;;;2.95;2.75;;;15.90;61.10;;;;;;4955264;28;20052;-60
2022/08/11 03:19:17;;;;;;;2.65;2.45;;;15.70;60.40;;;;;;4946565;28;20101;-62
2022/08/11 03:21:58;;;;;;;2.95;2.65;;;15.70;61.50;;;;;;4951406;28;20062;-60
2022/08/11 03:24:51;;;;;;;3.17;2.90;;;15.60;61.50;;;;;;4950717;28;20110;-62
2022/08/11 03:27:57;;;;;;;2.78;2.58;;;15.60;62.00;;;;;;4951732;28;20047;-62
2022/08/11 03:30:33;;;;;;;3.00;2.63;;;15.60;62.30;;;;;;4930482;28;20593;-63
2022/08/11 03:36:06;;;;;;;2.63;2.30;;;15.50;61.40;;;;;;4952666;28;20521;-62
2022/08/11 03:39:01;;;;;;;3.42;2.67;;;15.40;62.30;;;;;;4943642;28;20057;-62
2022/08/11 03:41:52;;;;;;;3.95;2.60;;;15.40;62.30;;;;;;4952303;28;20114;-63
2022/08/11 03:44:35;;;;;;;2.63;2.42;;;15.40;62.20;;;;;;4950309;28;20067;-62
2022/08/11 03:47:16;;;;;;;2.40;2.30;;;15.40;62.40;;;;;;4949703;28;20486;-63
2022/08/11 03:49:56;;;;;;;2.63;2.40;;;15.40;62.20;;;;;;4950368;28;20050;-63
2022/08/11 03:52:37;;;;;;;3.20;2.78;;;15.40;61.70;;;;;;4951607;28;20139;-63
2022/08/11 03:55:27;;;;;;;2.70;2.50;;;15.40;62.30;;;;;;4950936;28;20036;-63
2022/08/11 03:58:23;;;;;;;2.85;2.58;;;15.40;62.70;;;;;;4947199;28;20135;-64
2022/08/11 04:01:16;;;;;;;3.03;2.65;;;15.40;62.40;;;;;;4952290;28;20627;-64
2022/08/11 04:04:17;;;;;;;2.88;2.60;;;15.40;62.30;;;;;;4950559;28;20050;-61
2022/08/11 04:07:20;;;;;;;2.58;2.38;;;15.40;62.70;;;;;;4952119;28;20058;-64
2022/08/11 04:10:04;;;;;;;3.63;2.38;;;15.40;62.60;;;;;;4949057;28;20047;-64
2022/08/11 04:12:38;;;;;;;2.65;2.45;;;15.40;62.00;;;;;;4942008;28;20035;-63
2022/08/11 04:18:38;;;;;;;3.25;2.83;;;15.40;62.60;;;;;;4948711;28;20050;-64
2022/08/11 04:21:40;;;;;;;3.22;2.72;;;15.40;61.90;;;;;;4947338;28;20031;-64
2022/08/11 04:24:46;;;;;;;3.17;2.88;;;15.50;62.70;;;;;;4948958;28;20241;-65
2022/08/11 04:27:27;;;;;;;4.15;2.80;;;15.50;62.90;;;;;;4946624;28;20040;-64
2022/08/11 04:30:06;;;;;;;3.13;2.85;;;15.60;61.80;;;;;;4950354;28;20376;-64
2022/08/11 04:32:56;;;;;;;4.22;2.90;;;15.60;62.40;;;;;;4949948;28;20032;-61
2022/08/11 04:35:30;;;;;;;3.40;3.10;;;15.70;62.50;;;;;;4948285;28;20047;-63
2022/08/11 04:38:14;;;;;;;3.35;2.92;;;15.70;61.80;;;;;;4951402;28;20551;-63
2022/08/11 04:40:51;;;;;;;3.45;3.03;;;15.80;61.50;;;;;;4950157;28;20082;-65
2022/08/11 04:43:48;;;;;;;3.67;3.28;;;15.80;61.70;;;;;;4947538;28;20400;-65
2022/08/11 04:46:47;;;;;;;4.03;2.90;;;15.80;62.20;;;;;;4950594;28;20059;-65
2022/08/11 05:02:16;;;;;;;3.65;3.10;;;16.10;62.10;;;;;;4949023;28;20541;-64
2022/08/11 05:05:29;;;;;;;4.97;2.83;;;16.10;62.20;;;;;;4947868;28;20046;-64
2022/08/11 05:08:16;;;;;;;3.83;3.08;;;16.10;62.30;;;;;;4951908;28;20130;-63
2022/08/11 05:11:19;;;;;;;4.07;2.90;;;16.20;61.80;;;;;;4942774;28;20038;-64
2022/08/11 05:37:03;;;;;;;4.20;3.35;;;16.60;62.20;;;;;;4946102;28;20433;-63
2022/08/11 05:56:32;;;;;;;3.13;2.72;;;17.20;62.00;;;;;;4948816;28;20081;-65
2022/08/11 05:58:59;;;;;;;6.05;3.22;;;17.30;62.10;;;;;;4949840;28;20046;-64
2022/08/11 06:01:31;;;;;;;5.07;3.13;;;17.30;62.00;;;;;;4948645;28;20040;-63
2022/08/11 06:04:13;;;;;;;3.45;3.15;;;17.40;62.20;;;;;;4948866;28;20924;-62
2022/08/11 06:06:57;;;;;;;3.75;3.13;;;17.50;62.00;;;;;;4949450;28;20032;-62
2022/08/11 06:09:49;;;;;;;4.70;3.25;;;17.50;62.10;;;;;;4948582;28;20054;-65
2022/08/11 06:12:34;;;;;;;4.70;3.10;;;17.70;61.90;;;;;;4946541;28;20597;-63
2022/08/11 06:15:08;;;;;;;4.30;3.03;;;17.70;61.70;;;;;;4950875;28;20038;-64
2022/08/11 06:17:44;;;;;;;2.93;2.70;;;17.80;61.50;;;;;;4947904;28;20287;-63
2022/08/11 06:20:11;;;;;;;4.30;2.78;;;17.90;61.30;;;;;;4948455;28;20305;-63
2022/08/11 06:22:43;;;;;;;3.10;2.85;;;18.00;61.30;;;;;;4947803;28;20043;-63
2022/08/11 06:25:11;;;;;;;5.25;3.03;;;18.00;61.30;;;;;;4948457;28;20162;-64
2022/08/11 06:27:39;;;;;;;3.47;3.10;;;18.10;61.00;;;;;;4948156;28;20514;-64
2022/08/11 06:30:12;;;;;;;3.88;3.10;;;18.20;60.70;;;;;;4948984;28;20070;-64
2022/08/11 06:32:43;;;;;;;2.95;2.75;;;18.20;60.50;;;;;;4948709;28;20046;-65
2022/08/11 06:35:34;;;;;;;3.20;2.53;;;18.40;60.40;;;;;;4949517;28;20058;-63
2022/08/11 06:38:19;;;;;;;3.13;2.80;;;18.40;60.20;;;;;;4956179;28;20039;-64
2022/08/11 06:44:11;;;;;;;3.55;3.17;;;18.60;60.00;;;;;;4952509;28;20062;-65
2022/08/11 06:46:39;;;;;;;3.30;3.00;;;18.70;59.90;;;;;;4938077;28;20403;-62
2022/08/11 06:52:05;;;;;;;4.18;3.20;;;18.80;59.40;;;;;;4945002;28;20102;-65
2022/08/11 06:54:40;;;;;;;3.78;3.05;;;19.00;59.30;;;;;;4940294;28;20047;-63
2022/08/11 07:02:52;;;;;;;3.22;2.88;;;19.20;58.80;;;;;;4948754;28;20089;-64
2022/08/11 07:05:27;;;;;;;3.40;3.10;;;19.30;58.80;;;;;;4945197;28;20039;-64
2022/08/11 07:17:25;;;;;;;3.40;2.90;;;19.70;58.20;;;;;;4952474;28;20267;-63
2022/08/11 07:31:12;;;;;;;2.67;2.35;;;20.20;57.50;;;;;;4947014;28;20411;-63
2022/08/11 07:34:31;;;;;;;3.10;2.35;;;20.30;57.60;;;;;;4943770;28;20340;-64
2022/08/11 07:37:07;;;;;;;5.20;2.70;;;20.40;57.50;;;;;;4917373;28;20825;-64
2022/08/11 07:39:36;;;;;;;3.45;2.40;;;20.50;57.10;;;;;;4952600;28;20579;-65
2022/08/11 07:42:08;;;;;;;4.90;2.70;;;20.60;57.00;;;;;;4944578;28;20039;-64
2022/08/11 07:48:10;;;;;;;3.92;2.40;;;20.70;56.60;;;;;;4946751;28;20094;-62
2022/08/11 07:52:56;;;;;;;3.40;2.53;;;21.00;56.60;;;;;;4949292;28;20097;-63
2022/08/11 07:55:26;;;;;;;3.40;2.50;;;21.10;56.10;;;;;;4948918;28;20047;-62
2022/08/11 08:19:52;;;;;;;2.45;2.22;;;22.00;55.00;;;;;;4956746;28;20116;-61
2022/08/11 08:22:19;;;;;;;4.00;2.20;;;22.10;54.60;;;;;;4957546;28;20116;-64
2022/08/11 08:24:46;;;;;;;4.28;2.60;;;22.20;54.50;;;;;;4953519;28;20402;-64
2022/08/11 08:27:16;;;;;;;2.50;2.28;;;22.30;54.00;;;;;;4951536;28;20042;-63
2022/08/11 08:32:29;;;;;;;2.40;2.20;;;22.50;53.90;;;;;;4949638;28;20066;-64
2022/08/11 08:34:57;;;;;;;2.50;2.30;;;22.60;53.80;;;;;;4952867;28;20035;-64
2022/08/11 08:37:25;;;;;;;2.85;2.30;;;22.70;53.40;;;;;;4952294;28;20043;-63
2022/08/11 08:39:52;;;;;;;6.50;2.40;;;22.80;53.20;;;;;;4954186;28;20038;-63
2022/08/11 08:42:24;;;;;;;5.68;2.33;;;22.90;53.00;;;;;;4952914;28;20054;-62
2022/08/11 08:44:57;;;;;;;3.70;2.10;;;22.90;52.50;;;;;;4951418;28;20073;-63
2022/08/11 08:47:25;;;;;;;2.53;2.08;;;23.00;52.60;;;;;;4954368;28;20043;-64
2022/08/11 08:50:02;;;;;;;3.45;2.28;;;23.10;52.40;;;;;;4946288;28;20047;-64
2022/08/11 08:52:33;;;;;;;2.85;2.15;;;23.20;52.40;;;;;;4952702;28;20047;-64
2022/08/11 08:55:03;;;;;;;3.65;2.05;;;23.30;52.20;;;;;;4957578;28;20061;-63
2022/08/11 08:57:32;;;;;;;2.33;1.98;;;23.30;52.00;;;;;;4953064;28;20031;-64
2022/08/11 08:59:59;;;;;;;4.93;1.98;;;23.40;51.90;;;;;;4953396;28;20043;-63
2022/08/11 09:02:26;;;;;;;2.20;2.03;;;23.50;51.60;;;;;;4953204;28;20126;-63
2022/08/11 09:04:52;;;;;;;5.70;1.90;;;23.60;51.50;;;;;;4943072;28;20505;-64
2022/08/11 09:07:22;;;;;;;2.20;1.98;;;23.70;51.50;;;;;;4951105;28;20098;-64
2022/08/11 09:09:50;;;;;;;1.77;1.67;;;23.80;51.00;;;;;;4952242;28;20035;-63
2022/08/11 09:12:18;;;;;;;1.85;1.75;;;23.90;50.90;;;;;;4948916;28;20136;-64
2022/08/11 09:14:59;;;;;;;2.05;1.85;;;23.90;50.70;;;;;;4952706;28;20060;-63
2022/08/11 09:17:27;;;;;;;2.88;2.28;;;24.10;50.90;;;;;;4953725;28;20043;-64
2022/08/11 09:20:20;;;;;;;3.58;2.05;;;24.10;50.70;;;;;;4953623;28;20035;-63
2022/08/11 09:28:20;;;;;;;4.05;2.03;;;24.50;50.20;;;;;;4951674;28;20098;-64
2022/08/11 09:30:52;;;;;;;4.25;2.17;;;24.50;49.50;;;;;;4955371;28;20042;-64
2022/08/11 09:33:19;;;;;;;4.10;2.10;;;24.60;48.70;;;;;;4956748;28;20403;-63
2022/08/11 09:35:47;;;;;;;3.50;2.25;;;24.70;48.80;;;;;;4957497;28;20752;-65
2022/08/11 09:41:01;;;;;;;2.03;1.83;;;24.80;48.50;;;;;;4953373;28;20049;-62
2022/08/11 09:46:12;;;;;;;2.65;2.05;;;25.00;48.70;;;;;;4951355;28;20078;-64
2022/08/11 09:48:42;;;;;;;1.95;1.85;;;25.10;48.40;;;;;;4957314;28;20122;-64
2022/08/11 09:51:09;;;;;;;2.20;1.92;;;25.20;48.00;;;;;;4953638;28;20053;-64
2022/08/11 09:53:37;;;;;;;2.88;1.80;;;25.30;48.00;;;;;;4950547;28;20494;-64
2022/08/11 09:58:12;;;;;;;2.00;1.80;;;25.40;47.90;;;;;;4953169;28;20026;-64
2022/08/11 09:58:51;;;;;;;2.30;1.88;;;25.50;47.80;;;;;;4955477;28;20056;-65
2022/08/11 10:01:27;;;;;;;2.20;1.83;;;25.60;47.80;;;;;;4954080;28;20392;-65
2022/08/11 10:04:07;;;;;;;2.58;1.77;;;25.70;47.20;;;;;;4951572;28;20406;-64
2022/08/11 10:09:22;;;;;;;1.88;1.77;;;25.90;46.70;;;;;;4952975;28;20066;-64
2022/08/11 10:11:48;;;;;;;1.70;1.60;;;26.00;46.90;;;;;;4947448;28;20046;-64
2022/08/11 10:17:06;;;;;;;1.90;1.70;;;26.10;46.00;;;;;;4955044;28;20094;-64
2022/08/11 10:19:36;;;;;;;7.97;2.10;;;26.20;46.50;;;;;;4951166;28;20031;-63
2022/08/11 10:27:37;;;;;;;4.15;1.90;;;26.40;45.70;;;;;;4949732;28;20089;-62
2022/08/11 10:35:35;;;;;;;1.90;1.75;;;26.50;45.20;;;;;;4954899;28;20046;-63
2022/08/11 10:38:01;;;;;;;2.72;1.90;;;26.50;45.40;;;;;;4954173;28;20031;-64
2022/08/11 10:40:27;;;;;;;2.92;1.83;;;26.60;45.10;;;;;;4950925;28;20050;-66
2022/08/11 10:43:11;;;;;;;2.28;1.70;;;26.60;45.10;;;;;;4947763;28;20043;-65
2022/08/11 10:48:28;;;;;;;1.92;1.67;;;26.70;45.20;;;;;;4954374;28;20175;-63
2022/08/11 10:51:13;;;;;;;2.63;1.70;;;26.80;44.60;;;;;;4954952;28;20518;-62
2022/08/11 10:59:23;;;;;;;2.13;1.60;;;26.90;44.50;;;;;;4955490;28;20077;-64
2022/08/11 11:01:51;;;;;;;1.88;1.73;;;26.90;44.30;;;;;;4955228;28;21260;-64
2022/08/11 11:04:22;;;;;;;3.67;2.00;;;27.00;43.90;;;;;;4952984;28;20442;-64
2022/08/11 11:07:04;;;;;;;3.55;1.60;;;26.90;43.90;;;;;;4955586;28;20073;-64
2022/08/11 11:09:33;;;;;;;1.70;1.60;;;26.90;43.90;;;;;;4953268;28;20185;-64
2022/08/11 11:18:34;;;;;;;1.50;1.40;;;27.00;44.30;;;;;;4952986;28;20610;-63
2022/08/11 11:21:16;;;;;;;2.00;1.80;;;27.10;44.00;;;;;;4952037;28;20102;-59
2022/08/11 11:24:11;;;;;;;1.52;1.42;;;27.20;43.90;;;;;;4954131;28;20046;-63
2022/08/11 11:26:49;;;;;;;1.73;1.42;;;27.20;44.30;;;;;;4958379;28;20042;-62
2022/08/11 11:29:33;;;;;;;2.35;1.83;;;27.30;44.10;;;;;;4959162;28;20097;-64
2022/08/11 11:32:15;;;;;;;1.60;1.50;;;27.40;44.20;;;;;;4955044;28;20477;-64
2022/08/11 11:34:49;;;;;;;5.25;1.60;;;27.40;43.80;;;;;;4960064;28;20023;-63
2022/08/11 11:37:16;;;;;;;;;;;27.50;43.50;;;;;;4952769;28;20034;-63
2022/08/11 11:39:43;;;;;;;1.67;1.35;;;27.70;44.50;;;;;;4955137;28;19922;-62
2022/08/11 11:42:10;;;;;;;2.33;1.65;;;27.70;43.50;;;;;;4955287;28;20035;-64
2022/08/11 11:44:43;;;;;;;1.60;1.50;;;27.80;43.60;;;;;;4951911;28;20068;-62
2022/08/11 11:47:11;;;;;;;1.98;1.70;;;27.80;42.20;;;;;;4952718;28;20394;-64
2022/08/11 11:49:41;;;;;;;1.95;1.60;;;27.80;42.60;;;;;;4946178;28;20066;-64
2022/08/11 11:52:12;;;;;;;1.60;1.50;;;27.80;42.60;;;;;;4951997;28;20038;-64
2022/08/11 11:54:39;;;;;;;1.65;1.55;;;27.80;42.60;;;;;;4954101;28;20507;-64
2022/08/11 12:02:36;;;;;;;4.90;1.52;;;27.90;42.50;;;;;;4951554;28;20038;-64
2022/08/11 12:05:03;;;;;;;2.30;1.60;;;27.90;42.00;;;;;;4951872;28;20515;-64
2022/08/11 12:10:16;;;;;;;1.50;1.40;;;28.00;41.80;;;;;;4949083;28;20090;-65
2022/08/11 12:15:27;;;;;;;2.40;1.40;;;28.00;41.50;;;;;;4951690;28;20533;-63
2022/08/11 12:17:55;;;;;;;1.50;1.40;;;28.00;41.60;;;;;;4955007;28;20170;-64
2022/08/11 12:20:21;;;;;;;3.97;1.50;;;28.00;41.70;;;;;;4952424;28;20047;-64
2022/08/11 12:28:21;;;;;;;1.65;1.40;;;28.10;41.50;;;;;;4951878;28;20586;-64
2022/08/11 12:30:51;;;;;;;2.42;1.60;;;28.10;41.60;;;;;;4953215;28;20047;-64
2022/08/11 12:33:18;;;;;;;1.50;1.40;;;28.20;41.20;;;;;;4956706;28;20522;-63
2022/08/11 12:35:45;;;;;;;1.40;1.30;;;28.20;41.20;;;;;;4947796;28;20074;-63
2022/08/11 12:38:13;;;;;;;7.20;1.50;;;28.20;40.90;;;;;;4958396;28;20046;-63
2022/08/11 12:46:18;;;;;;;1.40;1.30;;;28.20;40.40;;;;;;4954920;28;20214;-62
2022/08/11 12:52:00;;;;;;;1.40;1.30;;;28.30;40.20;;;;;;4958082;28;20066;-63
2022/08/11 12:54:59;;;;;;;1.20;1.10;;;28.30;39.30;;;;;;4953676;28;20031;-64
2022/08/11 13:06:04;;;;;;;2.55;1.30;;;28.40;40.70;;;;;;4955668;28;20163;-63
2022/08/11 13:08:37;;;;;;;1.52;1.42;;;28.40;40.30;;;;;;4955456;28;20043;-63
2022/08/11 13:13:51;;;;;;;1.48;1.38;;;28.50;40.30;;;;;;4956513;28;20118;-63
2022/08/11 13:16:17;;;;;;;1.55;1.33;;;28.50;39.90;;;;;;4954401;28;20031;-63
2022/08/11 13:18:43;;;;;;;1.77;1.30;;;28.50;39.50;;;;;;4951188;28;20042;-65
2022/08/11 13:21:10;;;;;;;1.33;1.23;;;28.50;39.70;;;;;;4951650;28;20039;-64
2022/08/11 13:23:37;;;;;;;2.58;1.30;;;28.50;39.40;;;;;;4955769;28;20039;-64
2022/08/11 13:26:04;;;;;;;1.35;1.25;;;28.60;39.50;;;;;;4956962;28;20128;-64
2022/08/11 13:28:30;;;;;;;4.65;1.33;;;28.60;39.50;;;;;;4953205;28;20566;-64
2022/08/11 13:31:13;;;;;;;1.92;1.35;;;28.60;39.60;;;;;;4954328;28;20100;-64
2022/08/11 13:33:42;;;;;;;2.40;1.40;;;28.60;39.60;;;;;;4954678;28;20043;-62
2022/08/11 13:36:08;;;;;;;1.30;1.20;;;28.60;39.00;;;;;;4952608;28;20574;-63
2022/08/11 13:38:35;;;;;;;1.40;1.30;;;28.60;39.50;;;;;;4955116;28;20122;-64
2022/08/11 13:41:01;;;;;;;1.58;1.48;;;28.60;39.90;;;;;;4953851;28;20057;-63
2022/08/11 13:43:27;;;;;;;2.55;1.15;;;28.60;39.20;;;;;;4954902;28;20520;-62
2022/08/11 13:46:17;;;;;;;1.50;1.40;;;28.60;39.10;;;;;;4954057;28;20613;-63
2022/08/11 13:48:41;;;;;;;1.48;1.25;;;28.70;39.10;;;;;;4951488;28;20043;-63
2022/08/11 13:53:52;;;;;;;1.75;1.40;;;28.70;39.40;;;;;;4953068;28;20538;-62
2022/08/11 13:56:21;;;;;;;1.63;1.50;;;28.70;39.10;;;;;;4954217;28;20583;-61
2022/08/11 13:58:48;;;;;;;1.55;1.40;;;28.70;39.00;;;;;;4953507;28;20035;-64
2022/08/11 14:01:14;;;;;;;2.55;1.20;;;28.70;39.10;;;;;;4943066;28;20137;-64
2022/08/11 14:03:42;;;;;;;1.98;1.40;;;28.70;39.30;;;;;;4954321;28;20039;-63
2022/08/11 14:06:08;;;;;;;2.47;1.30;;;28.70;39.00;;;;;;4951284;28;20038;-64
2022/08/11 14:08:37;;;;;;;1.60;1.48;;;28.70;39.20;;;;;;4951650;28;20032;-62
2022/08/11 14:13:51;;;;;;;4.40;1.30;;;28.80;38.50;;;;;;4952150;28;20195;-65
2022/08/11 14:16:44;;;;;;;1.90;1.52;;;28.80;38.60;;;;;;4952809;28;20078;-64
2022/08/11 14:19:13;;;;;;;1.27;1.17;;;28.90;39.20;;;;;;4949048;28;20041;-64
2022/08/11 14:24:28;;;;;;;3.90;1.35;;;28.90;39.20;;;;;;4955366;28;20085;-64
2022/08/11 14:26:54;;;;;;;2.05;1.40;;;29.00;39.20;;;;;;4955875;28;20043;-65
2022/08/11 14:29:24;;;;;;;2.38;1.40;;;29.00;39.00;;;;;;4953574;28;20063;-63
2022/08/11 14:31:54;;;;;;;1.42;1.33;;;29.00;39.00;;;;;;4954978;28;20040;-64
2022/08/11 14:34:23;;;;;;;1.95;1.40;;;29.10;39.00;;;;;;4950034;28;20110;-63
2022/08/11 14:36:54;;;;;;;46.15;3.30;;;29.10;38.80;;;;;;4952706;28;20498;-64
2022/08/11 14:39:27;;;;;;;1.70;1.27;;;29.00;38.70;;;;;;4950210;28;20039;-63
2022/08/11 14:47:40;;;;;;;1.77;1.20;;;29.10;38.20;;;;;;4951537;28;20418;-64
2022/08/11 14:50:12;;;;;;;1.60;1.38;;;29.10;37.80;;;;;;4948604;28;20121;-64
2022/08/11 14:52:48;;;;;;;4.75;1.30;;;29.10;37.40;;;;;;4937295;28;20050;-64
2022/08/11 14:58:00;;;;;;;2.20;1.13;;;29.20;37.30;;;;;;4956912;28;20414;-63
2022/08/11 15:00:27;;;;;;;1.20;1.00;;;29.10;37.10;;;;;;4955934;28;20581;-64
2022/08/11 15:03:09;;;;;;;1.98;1.30;;;29.20;36.80;;;;;;4957174;28;20126;-64
2022/08/11 15:05:37;;;;;;;1.40;1.30;;;29.20;36.90;;;;;;4956595;28;20058;-64
2022/08/11 15:08:04;;;;;;;1.20;1.10;;;29.20;37.10;;;;;;4958314;28;20043;-64
2022/08/11 15:10:30;;;;;;;2.25;1.25;;;29.20;37.40;;;;;;4953068;28;20127;-67
2022/08/11 15:12:56;;;;;;;1.98;1.15;;;29.20;37.40;;;;;;4948996;28;20058;-64
2022/08/11 15:18:22;;;;;;;1.80;1.30;;;29.30;37.40;;;;;;4950634;28;20417;-64
2022/08/11 15:37:25;;;;;;;1.85;1.25;;;29.30;37.30;;;;;;4960654;28;20093;-65
2022/08/11 15:37:30;;;;;;;1.60;1.00;;;29.30;37.00;;;;;;4961288;28;20045;-64
2022/08/11 15:46:01;;;;;;;2.65;1.40;;;29.40;36.60;;;;;;4957621;28;20058;-64
2022/08/11 15:48:40;;;;;;;1.15;1.05;;;29.40;37.00;;;;;;4956235;28;20659;-64
2022/08/11 15:51:09;;;;;;;2.50;1.40;;;29.50;36.90;;;;;;4957144;28;20045;-64
2022/08/11 15:53:45;;;;;;;3.90;1.10;;;29.60;36.80;;;;;;4957634;28;20051;-64
2022/08/11 15:56:12;;;;;;;1.30;1.20;;;29.60;36.40;;;;;;4958688;28;20039;-64
2022/08/11 16:04:23;;;;;;;1.90;1.23;;;29.70;36.80;;;;;;4958675;28;20513;-64
2022/08/11 16:07:12;;;;;;;1.95;1.20;;;29.70;36.60;;;;;;4958080;28;20043;-63
2022/08/11 16:09:56;;;;;;;2.35;1.25;;;29.80;36.60;;;;;;4958773;28;20035;-64
2022/08/11 16:12:27;;;;;;;1.42;1.23;;;29.80;36.50;;;;;;4953167;28;20118;-64
2022/08/11 16:17:44;;;;;;;1.25;1.15;;;30.00;36.50;;;;;;4960034;28;20042;-64
2022/08/11 16:20:17;;;;;;;4.25;1.27;;;30.00;36.10;;;;;;4957642;28;20609;-64
2022/08/11 16:22:46;;;;;;;2.38;1.20;;;30.10;35.90;;;;;;4958334;28;20126;-64
2022/08/11 16:25:22;;;;;;;1.25;0.90;;;30.20;35.80;;;;;;4959234;28;20517;-64
2022/08/11 16:27:55;;;;;;;1.15;1.10;;;30.30;35.80;;;;;;4956491;28;20475;-64
2022/08/11 16:30:22;;;;;;;2.80;1.30;;;30.40;36.50;;;;;;4956388;28;20043;-63
2022/08/11 16:32:52;;;;;;;1.80;1.10;;;30.40;35.90;;;;;;4958413;28;20031;-64
2022/08/11 16:40:54;;;;;;;1.15;1.10;;;30.80;35.60;;;;;;4956751;28;20521;-63
2022/08/11 16:48:56;;;;;;;3.10;1.13;;;31.40;35.00;;;;;;4956244;28;20045;-64
2022/08/11 16:51:22;;;;;;;1.08;0.98;;;31.60;34.20;;;;;;4958028;28;20028;-63
2022/08/11 16:53:49;;;;;;;4.38;1.30;;;31.80;34.30;;;;;;4960049;28;20060;-64
2022/08/11 16:56:18;;;;;;;3.47;1.00;;;31.90;34.20;;;;;;4959267;28;20495;-64
2022/08/11 17:01:34;;;;;;;1.33;1.13;;;32.30;33.30;;;;;;4957753;28;20134;-64
2022/08/11 17:18:39;;;;;;;2.15;1.20;;;33.00;32.60;;;;;;4955489;28;20356;-64
2022/08/11 17:21:04;;;;;;;1.58;1.05;;;33.10;32.40;;;;;;4954800;28;20039;-65
2022/08/11 17:23:45;;;;;;;1.65;1.35;;;33.20;32.10;;;;;;4957553;28;20039;-64
2022/08/11 17:26:14;;;;;;;2.35;1.00;;;33.30;31.90;;;;;;4958241;28;20031;-63
2022/08/11 17:28:41;;;;;;;3.47;1.00;;;33.40;31.40;;;;;;4957899;28;20037;-64
2022/08/11 17:36:43;;;;;;;1.10;1.00;;;33.50;30.40;;;;;;4955203;28;20044;-64
2022/08/11 17:39:10;;;;;;;3.83;1.05;;;33.50;30.30;;;;;;4954247;28;20094;-64
2022/08/11 17:49:53;;;;;;;1.02;0.90;;;33.30;30.00;;;;;;4957863;28;20045;-63
2022/08/11 18:00:49;;;;;;;1.60;0.90;;;32.90;30.50;;;;;;4957693;28;20058;-64
2022/08/11 18:03:38;;;;;;;1.98;1.08;;;32.70;30.40;;;;;;4958398;28;20074;-63
2022/08/11 18:06:05;;;;;;;0.95;0.93;;;32.60;30.50;;;;;;4956650;28;20034;-64
